Lake Leelanau, Michigan
Current Conditions -  °F | °C
As of 8:19 PM on Wednesday 26 Nov 2014 (Local Time) from KTVC Reporting Station
Light Snow Light Snow  
Wind Chill: 29°   Ceiling: 2600
Heat Index: 29°   Visibility: 9mi
Dew Point: 25°   Wind: 0mph
Humidity: 85%   Direction: NA
Pressure: 30.13"   Gusts: NA
Location:  44.98°N, 85.71°W
Report Text: KTVC 270119Z 00000KT 9SM -SN BKN026 OVC035 M02/M04 A3013 RMK AO2 P0000 T10171039
Loading
Personal Weather Stations






























Interactive Weather Map New forecast layout! Learn more

10-Day Weather Forecast

Advertisements
Track Severe Weather on mobile